Time;durP1;ratioP1;P1;durP2;ratioP2;P2;SDS_P1;SDS_P2;PMS_P1;PMS_P2;Temp;Humidity;BMP_temperature;BMP_pressure;BME280_temperature;BME280_humidity;BME280_pressure;Samples;Min_cycle;Max_cycle;Signal;HPM_P1;HPM_P2
2023/01/24 16:17:10;;;;;;;20.67;11.33;;;3.30;99.90;;;;;;6136297;23;20232;-96
2023/01/24 16:19:37;;;;;;;21.43;11.77;;;3.30;99.90;;;;;;6186337;23;20162;-96
2023/01/24 16:22:04;;;;;;;20.23;11.10;;;3.30;99.90;;;;;;6186881;23;20157;-96
2023/01/24 16:24:31;;;;;;;19.23;10.00;;;3.30;99.90;;;;;;6186422;23;20181;-95
2023/01/24 16:27:00;;;;;;;17.97;9.93;;;3.30;99.90;;;;;;6186581;23;20169;-96
2023/01/24 16:29:30;;;;;;;17.63;10.03;;;3.30;99.90;;;;;;6187140;23;20204;-96
2023/01/24 16:31:57;;;;;;;16.30;9.97;;;3.30;99.90;;;;;;6187179;23;20224;-96
2023/01/24 16:34:26;;;;;;;16.93;9.40;;;3.30;99.90;;;;;;6186304;23;20170;-96
2023/01/24 16:36:53;;;;;;;17.77;9.73;;;3.30;99.90;;;;;;6186695;23;20181;-96
2023/01/24 16:39:22;;;;;;;17.43;9.57;;;3.30;99.90;;;;;;6186748;23;20173;-96
2023/01/24 16:41:50;;;;;;;17.67;9.70;;;3.30;99.90;;;;;;6187329;23;20695;-95
2023/01/24 16:44:17;;;;;;;19.27;10.57;;;3.30;99.90;;;;;;6186753;23;20165;-95
2023/01/24 16:46:49;;;;;;;28.67;13.37;;;3.30;99.90;;;;;;6185933;23;20168;-96
2023/01/24 16:49:16;;;;;;;19.80;12.10;;;3.30;99.90;;;;;;6186466;23;20189;-96
2023/01/24 16:51:46;;;;;;;28.07;12.50;;;3.30;99.90;;;;;;6186510;23;20170;-96
2023/01/24 16:54:14;;;;;;;34.50;14.53;;;3.30;99.90;;;;;;6186471;23;20177;-96
2023/01/24 16:56:42;;;;;;;38.03;17.50;;;3.30;99.90;;;;;;6186162;23;20185;-96
2023/01/24 16:59:09;;;;;;;39.30;20.60;;;3.30;99.90;;;;;;6186138;23;20171;-95
2023/01/24 17:01:36;;;;;;;41.43;22.37;;;3.30;99.90;;;;;;6186720;23;20216;-96
2023/01/24 17:04:04;;;;;;;44.90;23.63;;;3.30;99.90;;;;;;6187679;23;20181;-96
2023/01/24 17:06:31;;;;;;;33.30;18.80;;;3.40;99.90;;;;;;6187849;23;20170;-96
2023/01/24 17:08:59;;;;;;;39.00;22.60;;;3.40;99.90;;;;;;6187387;23;20224;-95
2023/01/24 17:11:26;;;;;;;48.63;24.83;;;3.30;99.90;;;;;;6187333;23;20239;-96
2023/01/24 17:13:53;;;;;;;53.10;26.73;;;3.40;78.70;;;;;;6187277;23;20200;-96
2023/01/24 17:16:21;;;;;;;44.87;22.43;;;3.40;95.00;;;;;;6187455;23;20236;-96
2023/01/24 17:18:48;;;;;;;48.43;23.67;;;3.40;59.20;;;;;;6187328;23;20710;-96
2023/01/24 17:21:16;;;;;;;44.67;23.63;;;3.40;76.20;;;;;;6187063;23;20177;-96
2023/01/24 17:23:44;;;;;;;43.73;24.63;;;3.40;93.20;;;;;;6188603;23;20176;-96
2023/01/24 17:26:14;;;;;;;30.30;16.87;;;3.40;91.00;;;;;;6186892;23;20172;-96
2023/01/24 17:28:42;;;;;;;29.73;15.97;;;3.40;1.00;;;;;;6187449;23;20153;-96
2023/01/24 17:31:10;;;;;;;27.27;14.93;;;3.40;1.00;;;;;;6186371;23;20177;-95
2023/01/24 17:33:38;;;;;;;18.03;10.67;;;3.40;1.00;;;;;;6185534;23;20161;-95
2023/01/24 17:36:06;;;;;;;14.97;9.20;;;3.40;1.00;;;;;;6185557;23;20193;-95
2023/01/24 17:38:33;;;;;;;8.53;5.60;;;3.40;99.90;;;;;;6186042;23;20173;-95
2023/01/24 17:41:00;;;;;;;8.80;5.03;;;3.30;99.90;;;;;;6186479;23;20173;-94
2023/01/24 17:43:30;;;;;;;5.97;4.40;;;3.30;99.90;;;;;;6185425;23;20165;-96
2023/01/24 17:45:59;;;;;;;8.27;5.00;;;3.30;99.90;;;;;;6186198;23;20173;-95
2023/01/24 17:48:27;;;;;;;14.40;7.20;;;3.30;99.90;;;;;;6185947;23;20165;-96
2023/01/24 17:50:55;;;;;;;15.47;9.97;;;3.30;99.90;;;;;;6186331;23;20227;-95
2023/01/24 17:53:23;;;;;;;14.43;8.03;;;3.30;99.90;;;;;;6186999;23;20165;-95
2023/01/24 17:55:53;;;;;;;6.27;4.43;;;3.30;99.90;;;;;;6186452;23;20165;-95
2023/01/24 17:58:20;;;;;;;6.00;4.30;;;3.30;99.90;;;;;;6186613;23;20157;-96
2023/01/24 18:00:51;;;;;;;7.33;4.37;;;3.40;99.90;;;;;;6186376;23;20227;-96
2023/01/24 18:03:21;;;;;;;14.23;8.37;;;3.30;87.90;;;;;;6186628;23;20158;-96
2023/01/24 18:05:48;;;;;;;15.70;13.17;;;3.30;38.10;;;;;;6186278;23;20173;-96
2023/01/24 18:08:15;;;;;;;12.40;6.47;;;3.30;1.00;;;;;;6187060;23;20208;-95
2023/01/24 18:10:42;;;;;;;11.10;7.17;;;3.30;1.00;;;;;;6186494;23;20228;-96
2023/01/24 18:13:09;;;;;;;8.60;6.10;;;3.30;2.50;;;;;;6186195;23;20239;-95
2023/01/24 18:15:37;;;;;;;8.67;5.27;;;3.30;1.00;;;;;;6186304;23;20170;-95
2023/01/24 18:18:05;;;;;;;13.73;9.33;;;3.20;1.00;;;;;;6186339;23;20643;-94
2023/01/24 18:20:33;;;;;;;8.03;3.67;;;3.20;1.00;;;;;;6186308;23;20183;-95
2023/01/24 18:23:00;;;;;;;6.27;4.80;;;3.20;1.00;;;;;;6186597;23;20243;-94
2023/01/24 18:25:27;;;;;;;12.80;8.77;;;3.20;1.00;;;;;;6187121;23;20232;-94
2023/01/24 18:27:53;;;;;;;10.80;7.50;;;3.20;1.00;;;;;;6186184;23;20173;-96
2023/01/24 18:30:21;;;;;;;8.90;6.37;;;3.20;1.00;;;;;;6187273;23;20181;-94
2023/01/24 18:32:48;;;;;;;7.40;4.23;;;3.20;1.00;;;;;;6187156;23;20173;-94
2023/01/24 18:35:17;;;;;;;7.10;3.70;;;3.20;1.00;;;;;;6187109;23;20173;-95
2023/01/24 18:37:44;;;;;;;4.43;3.30;;;3.30;1.00;;;;;;6187229;23;20185;-94
2023/01/24 18:40:13;;;;;;;3.90;3.20;;;3.20;1.00;;;;;;6187244;23;20240;-94
2023/01/24 18:42:40;;;;;;;4.67;3.30;;;3.20;1.00;;;;;;6187221;23;20176;-93
2023/01/24 18:45:08;;;;;;;8.60;6.23;;;3.10;1.00;;;;;;6189234;23;20558;-94
2023/01/24 18:47:35;;;;;;;11.93;5.70;;;3.20;1.00;;;;;;6191126;23;20170;-94
2023/01/24 18:50:06;;;;;;;9.53;6.30;;;3.20;1.00;;;;;;6189959;23;20190;-95
2023/01/24 18:52:34;;;;;;;11.27;7.17;;;3.20;1.00;;;;;;6190649;23;20158;-96
2023/01/24 18:55:02;;;;;;;10.17;6.70;;;3.20;1.00;;;;;;6189259;23;20169;-96
2023/01/24 18:57:29;;;;;;;9.90;6.33;;;3.20;1.00;;;;;;6190841;23;20185;-96
2023/01/24 18:59:56;;;;;;;6.23;4.20;;;3.20;1.00;;;;;;6188716;23;20180;-95
2023/01/24 19:02:23;;;;;;;5.60;3.73;;;3.20;1.00;;;;;;6189235;23;20177;-94
2023/01/24 19:04:50;;;;;;;6.43;4.43;;;3.20;1.00;;;;;;6188877;23;20175;-96
2023/01/24 19:07:17;;;;;;;7.23;5.10;;;3.10;1.00;;;;;;6188374;23;20180;-94
2023/01/24 19:09:45;;;;;;;8.07;4.50;;;3.10;1.00;;;;;;6188815;23;20228;-95
2023/01/24 19:12:13;;;;;;;8.97;5.60;;;3.20;1.00;;;;;;6188577;23;20165;-96
2023/01/24 19:14:40;;;;;;;53.40;23.57;;;3.20;1.00;;;;;;6189106;23;20172;-95
2023/01/24 19:17:08;;;;;;;41.37;19.73;;;3.20;1.00;;;;;;6187842;23;20200;-96
2023/01/24 19:19:35;;;;;;;34.30;17.53;;;3.20;1.00;;;;;;6189672;23;20169;-95
2023/01/24 19:22:03;;;;;;;36.27;18.00;;;3.30;1.00;;;;;;6189140;23;20188;-96
2023/01/24 19:24:30;;;;;;;16.33;9.13;;;3.30;1.00;;;;;;6188258;23;20177;-94
2023/01/24 19:26:59;;;;;;;14.70;7.77;;;3.30;99.90;;;;;;6188549;23;20175;-96
2023/01/24 19:29:26;;;;;;;71.83;32.53;;;3.30;99.90;;;;;;6189170;23;20173;-96
2023/01/24 19:31:53;;;;;;;39.63;20.27;;;3.30;99.90;;;;;;6189952;23;20173;-96
2023/01/24 19:34:20;;;;;;;15.90;8.90;;;3.20;99.90;;;;;;6188291;23;20178;-96
2023/01/24 19:36:48;;;;;;;29.10;15.73;;;3.20;99.90;;;;;;6190328;23;20193;-96
2023/01/24 19:39:15;;;;;;;22.77;13.83;;;3.20;1.00;;;;;;6192029;23;20200;-96
2023/01/24 19:41:42;;;;;;;18.80;11.40;;;3.10;1.00;;;;;;6189520;23;20168;-96
2023/01/24 19:44:10;;;;;;;12.27;7.20;;;3.20;99.90;;;;;;6188638;23;20169;-95
2023/01/24 19:46:37;;;;;;;13.00;7.30;;;3.10;1.00;;;;;;6187967;23;20165;-96
2023/01/24 19:49:04;;;;;;;12.87;8.33;;;3.10;1.00;;;;;;6188682;23;20235;-95
2023/01/24 19:51:31;;;;;;;21.27;11.03;;;3.10;1.00;;;;;;6188564;23;20671;-96
2023/01/24 19:53:58;;;;;;;24.70;14.70;;;3.10;99.90;;;;;;6187852;23;20170;-96
2023/01/24 19:56:26;;;;;;;28.70;16.23;;;3.00;99.90;;;;;;6188791;23;20170;-96
2023/01/24 19:58:55;;;;;;;11.37;7.40;;;3.00;99.90;;;;;;6189063;23;20170;-96
2023/01/24 20:01:24;;;;;;;10.37;6.70;;;2.90;99.90;;;;;;6192885;23;20507;-96
2023/01/24 20:03:52;;;;;;;18.83;9.33;;;2.90;99.90;;;;;;6198974;23;20176;-96
2023/01/24 20:06:25;;;;;;;9.10;6.37;;;2.90;99.90;;;;;;6196361;23;20176;-96
2023/01/24 20:08:53;;;;;;;9.90;6.30;;;2.90;99.90;;;;;;6196067;23;20162;-96
2023/01/24 20:11:21;;;;;;;20.43;10.83;;;3.00;1.00;;;;;;6197329;23;20173;-96
2023/01/24 20:13:49;;;;;;;11.23;6.90;;;3.00;99.90;;;;;;6201315;23;20257;-96
2023/01/24 20:16:19;;;;;;;9.17;6.10;;;3.00;99.90;;;;;;6199065;23;20176;-96
2023/01/24 20:18:50;;;;;;;8.07;5.70;;;3.00;99.90;;;;;;6190275;23;20197;-95
2023/01/24 20:21:18;;;;;;;5.30;4.07;;;3.00;99.90;;;;;;6188119;23;20179;-95
2023/01/24 20:23:45;;;;;;;5.23;3.20;;;3.00;99.90;;;;;;6188890;23;20175;-96
2023/01/24 20:26:15;;;;;;;5.00;3.60;;;3.00;99.90;;;;;;6188060;23;20690;-96
2023/01/24 20:28:42;;;;;;;5.23;3.70;;;3.00;99.90;;;;;;6187803;23;20169;-95
2023/01/24 20:31:11;;;;;;;6.07;3.83;;;2.90;99.90;;;;;;6191562;23;20165;-96
2023/01/24 20:33:39;;;;;;;9.50;5.70;;;3.00;99.90;;;;;;6196127;23;20227;-96
2023/01/24 20:36:10;;;;;;;8.87;6.03;;;3.00;99.90;;;;;;6198886;23;20165;-94
2023/01/24 20:38:39;;;;;;;12.87;8.03;;;3.00;99.90;;;;;;6198920;23;20188;-95
2023/01/24 20:41:09;;;;;;;20.50;10.90;;;3.00;99.90;;;;;;6199164;23;20170;-96
2023/01/24 20:43:36;;;;;;;16.40;9.43;;;3.00;99.90;;;;;;6195228;23;20173;-95
2023/01/24 20:46:06;;;;;;;26.67;13.50;;;3.00;99.90;;;;;;6200533;23;20446;-96
2023/01/24 20:48:37;;;;;;;23.63;12.27;;;2.90;99.90;;;;;;6199647;23;20195;-96
2023/01/24 20:51:05;;;;;;;60.27;27.77;;;2.90;99.90;;;;;;6199673;23;20164;-96
2023/01/24 20:53:37;;;;;;;18.30;9.77;;;2.90;1.00;;;;;;6198546;23;20173;-96
2023/01/24 20:56:09;;;;;;;13.27;7.40;;;2.90;1.00;;;;;;6202962;23;20176;-95
2023/01/24 20:58:37;;;;;;;25.47;12.73;;;3.00;99.90;;;;;;6200059;23;20212;-96
2023/01/24 21:01:06;;;;;;;23.20;10.50;;;3.00;99.90;;;;;;6201581;23;20169;-96
2023/01/24 21:03:33;;;;;;;12.47;7.17;;;3.10;99.90;;;;;;6197454;23;20182;-96
2023/01/24 21:06:06;;;;;;;10.10;5.27;;;3.10;99.90;;;;;;6200267;23;20172;-95
2023/01/24 21:08:36;;;;;;;14.23;7.60;;;3.00;99.90;;;;;;6199879;23;20173;-96
2023/01/24 21:11:04;;;;;;;49.83;23.47;;;3.10;99.90;;;;;;6202656;23;20168;-96
2023/01/24 21:13:35;;;;;;;28.80;15.27;;;3.10;99.90;;;;;;6198015;23;20176;-96
2023/01/24 21:16:06;;;;;;;19.23;10.03;;;3.00;99.90;;;;;;6200041;23;20165;-96
2023/01/24 21:18:34;;;;;;;35.37;18.33;;;3.00;99.90;;;;;;6190884;23;20202;-96
2023/01/24 21:21:01;;;;;;;19.03;8.77;;;3.00;99.90;;;;;;6191126;23;20239;-96
2023/01/24 21:23:29;;;;;;;7.27;4.40;;;3.00;99.90;;;;;;6190218;23;20168;-96
2023/01/24 21:25:57;;;;;;;9.63;6.00;;;3.00;99.90;;;;;;6193223;23;20177;-96
2023/01/24 21:28:24;;;;;;;10.30;5.40;;;3.00;99.90;;;;;;6193702;23;20195;-95
2023/01/24 21:31:00;;;;;;;10.13;5.93;;;3.00;99.90;;;;;;6197871;23;20165;-96
2023/01/24 21:33:27;;;;;;;17.53;10.10;;;3.00;99.90;;;;;;6197994;23;20157;-96
2023/01/24 21:36:02;;;;;;;7.87;4.50;;;3.00;99.90;;;;;;6189566;23;20175;-96
2023/01/24 21:38:29;;;;;;;15.67;8.57;;;2.90;99.90;;;;;;6189795;23;20243;-96
2023/01/24 21:43:45;;;;;;;10.67;5.63;;;2.90;99.90;;;;;;6187795;23;20241;-96
2023/01/24 21:46:12;;;;;;;13.27;6.87;;;2.90;99.90;;;;;;6187946;23;20184;-95
2023/01/24 21:51:21;;;;;;;21.00;12.67;;;2.90;99.90;;;;;;6187137;23;20163;-96
2023/01/24 21:54:05;;;;;;;21.80;13.43;;;3.00;99.90;;;;;;6191997;23;20180;-96
2023/01/24 21:59:20;;;;;;;20.20;10.07;;;2.90;99.90;;;;;;6187609;23;20160;-95
2023/01/24 22:01:49;;;;;;;16.13;9.30;;;3.00;99.90;;;;;;6186852;23;20174;-96
2023/01/24 22:04:16;;;;;;;9.63;5.87;;;2.90;99.90;;;;;;6186105;23;20191;-95
2023/01/24 22:06:43;;;;;;;9.80;6.13;;;2.90;99.90;;;;;;6187204;23;20162;-96
2023/01/24 22:09:10;;;;;;;6.17;4.27;;;2.90;99.90;;;;;;6187933;23;20223;-96
2023/01/24 22:11:39;;;;;;;16.20;8.00;;;2.90;99.90;;;;;;6187938;23;20230;-95
2023/01/24 22:14:06;;;;;;;16.17;9.37;;;2.80;99.90;;;;;;6186672;23;20177;-95
2023/01/24 22:16:34;;;;;;;16.30;9.17;;;2.70;99.90;;;;;;6187344;23;20168;-95
2023/01/24 22:19:02;;;;;;;7.77;5.00;;;2.70;99.90;;;;;;6186713;23;20196;-96
2023/01/24 22:21:36;;;;;;;7.43;3.70;;;2.70;99.90;;;;;;6187085;23;20177;-95
2023/01/24 22:24:12;;;;;;;5.83;4.33;;;2.70;99.90;;;;;;6187362;23;20153;-95
2023/01/24 22:26:49;;;;;;;5.47;4.03;;;2.70;99.90;;;;;;6186671;23;20161;-95
2023/01/24 22:29:16;;;;;;;5.83;3.93;;;2.70;99.90;;;;;;6187395;23;20223;-96
2023/01/24 22:31:44;;;;;;;7.90;4.97;;;2.70;99.90;;;;;;6187253;23;20172;-96
2023/01/24 22:34:20;;;;;;;6.20;4.70;;;2.70;99.90;;;;;;6186248;23;20173;-95
2023/01/24 22:36:55;;;;;;;6.30;4.30;;;2.70;99.90;;;;;;6186521;23;20193;-96
2023/01/24 22:39:22;;;;;;;6.97;5.20;;;2.70;99.90;;;;;;6186421;23;20180;-94
2023/01/24 22:41:50;;;;;;;7.87;5.20;;;2.70;99.90;;;;;;6186222;23;20169;-96
2023/01/24 22:44:17;;;;;;;6.87;4.53;;;2.60;99.90;;;;;;6187360;23;20172;-95
2023/01/24 22:46:44;;;;;;;5.60;4.33;;;2.70;99.90;;;;;;6186198;23;20165;-96
2023/01/24 22:49:11;;;;;;;5.70;4.20;;;2.70;99.90;;;;;;6187328;23;20176;-96
2023/01/24 22:51:38;;;;;;;6.93;4.40;;;2.60;99.90;;;;;;6188211;23;20169;-96
2023/01/24 22:54:05;;;;;;;5.97;4.60;;;2.60;99.90;;;;;;6187210;23;20503;-95
2023/01/24 22:56:32;;;;;;;7.57;4.90;;;2.50;99.90;;;;;;6188995;23;20235;-96
2023/01/24 22:59:01;;;;;;;6.53;4.70;;;2.50;99.90;;;;;;6190952;23;20196;-96
2023/01/24 23:01:28;;;;;;;6.30;4.07;;;2.60;99.90;;;;;;6191476;23;20177;-96
2023/01/24 23:03:55;;;;;;;5.47;3.63;;;2.60;99.90;;;;;;6189256;23;20166;-96
2023/01/24 23:06:22;;;;;;;7.97;5.70;;;2.60;99.90;;;;;;6188069;23;20168;-96
2023/01/24 23:08:50;;;;;;;8.70;5.77;;;2.60;99.90;;;;;;6187568;23;20161;-96
2023/01/24 23:11:19;;;;;;;10.20;6.40;;;2.60;99.90;;;;;;6188577;23;20173;-95
2023/01/24 23:16:39;;;;;;;10.80;7.13;;;2.60;99.90;;;;;;6187717;23;20196;-95
2023/01/24 23:22:18;;;;;;;11.13;7.27;;;2.50;99.90;;;;;;6187453;23;20177;-95
2023/01/24 23:24:46;;;;;;;7.87;5.60;;;2.60;99.90;;;;;;6186878;23;20175;-95
2023/01/24 23:27:14;;;;;;;8.33;5.37;;;2.50;99.90;;;;;;6186892;23;20192;-96
2023/01/24 23:30:06;;;;;;;13.50;7.90;;;2.50;99.90;;;;;;6187690;23;20190;-96
2023/01/24 23:32:41;;;;;;;13.63;9.23;;;2.50;99.90;;;;;;6164652;23;20169;-96
2023/01/24 23:35:10;;;;;;;7.50;5.23;;;2.50;99.90;;;;;;6191071;23;20167;-95
2023/01/24 23:37:37;;;;;;;9.83;6.07;;;2.60;99.90;;;;;;6191133;23;20623;-95
2023/01/24 23:40:06;;;;;;;8.73;5.63;;;2.60;99.90;;;;;;6189761;23;20169;-96
2023/01/24 23:42:33;;;;;;;8.00;5.57;;;2.50;99.90;;;;;;6189868;23;20179;-96
2023/01/24 23:45:00;;;;;;;9.57;5.60;;;2.60;99.90;;;;;;6190301;23;20688;-96
2023/01/24 23:47:28;;;;;;;9.43;6.07;;;2.60;99.90;;;;;;6190220;23;20614;-96
2023/01/24 23:49:57;;;;;;;8.30;6.07;;;2.60;99.90;;;;;;6189315;23;20184;-96
2023/01/24 23:52:24;;;;;;;10.07;6.63;;;2.60;99.90;;;;;;6189697;23;20168;-96
2023/01/24 23:54:52;;;;;;;10.07;6.50;;;2.60;99.90;;;;;;6190673;23;20176;-95
2023/01/24 23:57:19;;;;;;;13.50;6.83;;;2.60;99.90;;;;;;6192553;23;20170;-96
2023/01/24 23:59:46;;;;;;;12.57;7.83;;;2.60;99.90;;;;;;6192330;23;20185;-96
